Royal Prince — WCX8037 — position and weather

sailwx.info

Track history (hours):
 
Tides and Currents Weather Stations Pressure Air Temp Water Temp Dewpoint Dewpoint Depression Visibility Wind Speed Wind Dir Waves Ship Positions

Royal Prince

More information available from US FCC via Universal Licensing System and Coast Guard Vessel Documentation Center.

Last reported at 2014-Sep-21 01:08 UTC. Time now 2014-Sep-21 02:07 UTC.
Position N 37°49' W 122°25'.

Length 28 m; draft 2.3 m.

Type: Passenger vessel. MMSI: 366975760.

Date/timePositionNaut miles runAvg speedWind from/ knotsBaromVisibWave heightAir tempDewpointWater temp
2014-Sep-21 01:08N 37°49' W 122°25'1 1.9
2014-Sep-21 00:33N 37°48' W 122°24'2 2.4
2014-Sep-20 23:33N 37°49' W 122°27'1 1.0
2014-Sep-20 22:33N 37°49' W 122°27'2 2.3
2014-Sep-20 21:33N 37°49' W 122°25'0 0.4
2014-Sep-20 20:33N 37°49' W 122°25'2 2.0
2014-Sep-20 19:33N 37°49' W 122°27'2 1.7
2014-Sep-20 18:33N 37°49' W 122°25'1 0.8
2014-Sep-20 17:33N 37°49' W 122°25'0 0.0
2014-Sep-20 16:33N 37°49' W 122°25'1 0.1
2014-Sep-20 00:34N 37°48' W 122°24'3 2.7
2014-Sep-19 23:34N 37°49' W 122°27'1 0.8
2014-Sep-19 22:33N 37°49' W 122°28'3 2.5
2014-Sep-19 21:33N 37°49' W 122°24'0 0.4
2014-Sep-19 20:33N 37°49' W 122°25'2 1.9
2014-Sep-19 19:34N 37°49' W 122°27'2 1.9
2014-Sep-19 18:34N 37°49' W 122°25'0 0.5
2014-Sep-19 17:33N 37°49' W 122°25'0 0.0
2014-Sep-19 03:12N 37°49' W 122°25'3 4.5
2014-Sep-19 02:34N 37°50' W 122°28'3 3.5
2014-Sep-19 01:34N 37°52' W 122°25'3 3.4
2014-Sep-19 00:34N 37°49' W 122°25'0 0.0
2014-Sep-18 23:34N 37°49' W 122°25'1 0.8
2014-Sep-18 22:34N 37°49' W 122°24'3 2.9
2014-Sep-18 21:34N 37°49' W 122°28'4 3.9
2014-Sep-18 20:34N 37°48' W 122°23'2 2.2
2014-Sep-18 19:33N 37°49' W 122°25'1 1.2
2014-Sep-18 18:34N 37°50' W 122°26'1 0.1
2014-Sep-18 03:17N 37°49' W 122°25'3 4.0
2014-Sep-18 02:33N 37°50' W 122°28'2 2.3
2014-Sep-18 01:33N 37°50' W 122°25'2 1.6
2014-Sep-18 00:33N 37°49' W 122°25'0 0.0
2014-Sep-17 23:33N 37°49' W 122°25'1 1.2
2014-Sep-17 22:33N 37°48' W 122°24'2 1.9
2014-Sep-17 21:33N 37°49' W 122°26'2 1.7
2014-Sep-17 20:33N 37°49' W 122°24'1 1.0
2014-Sep-17 19:33N 37°49' W 122°25'0 0.0
2014-Sep-17 03:16N 37°49' W 122°25'2 3.5
2014-Sep-17 02:33N 37°49' W 122°28'4 3.6
2014-Sep-17 01:33N 37°52' W 122°25'4 3.5
2014-Sep-17 00:33N 37°49' W 122°25'0 0.0
2014-Sep-16 23:33N 37°49' W 122°25'1 0.7
2014-Sep-16 22:33N 37°49' W 122°24'3 2.8
2014-Sep-16 21:33N 37°49' W 122°28'4 3.7
2014-Sep-16 20:33N 37°48' W 122°23'2 1.6
2014-Sep-16 19:33N 37°49' W 122°25'0 0.0
2014-Sep-16 03:07N 37°49' W 122°25'2 4.0
2014-Sep-16 02:34N 37°49' W 122°28'4 3.8
2014-Sep-16 01:34N 37°52' W 122°25'4 3.9
2014-Sep-16 00:34N 37°49' W 122°25'0 0.0
2014-Sep-15 23:34N 37°49' W 122°25'1 0.6
2014-Sep-15 22:34N 37°49' W 122°24'3 2.8
2014-Sep-15 21:33N 37°49' W 122°28'4 4.1
2014-Sep-15 20:33N 37°48' W 122°23'2 1.8
2014-Sep-15 19:34N 37°49' W 122°25'0 0.0
2014-Sep-15 04:34N 37°49' W 122°25'0 0.3
2014-Sep-15 03:34N 37°49' W 122°25'4 4.3
2014-Sep-15 02:34N 37°52' W 122°29'4 4.3
2014-Sep-15 01:34N 37°49' W 122°25'0 0.0
2014-Sep-15 00:34N 37°49' W 122°25'0 0.0
2014-Sep-14 23:34N 37°49' W 122°25'3 2.6
2014-Sep-14 22:34N 37°49' W 122°28'3 2.8
2014-Sep-14 21:34N 37°49' W 122°25'1 0.7
2014-Sep-14 20:34N 37°49' W 122°25'3 3.0
2014-Sep-14 19:34N 37°49' W 122°29'3 2.9
2014-Sep-14 18:34N 37°50' W 122°25'1 1.0
2014-Sep-14 17:34N 37°49' W 122°25'0 0.0
2014-Sep-13 21:34N 37°49' W 122°24'0 0.5
2014-Sep-13 20:34N 37°49' W 122°25'3 2.8
2014-Sep-13 19:33N 37°49' W 122°28'2 2.5
2014-Sep-13 18:34N 37°50' W 122°25'1 1.1
2014-Sep-13 17:34N 37°49' W 122°25'0 0.0
2014-Sep-13 16:33N 37°49' W 122°25'0 0.0
2014-Sep-13 15:33N 37°49' W 122°25'0 0.0
2014-Sep-13 01:07N 37°49' W 122°25'1 1.7
2014-Sep-13 00:33N 37°48' W 122°24'3 2.6
2014-Sep-12 23:33N 37°49' W 122°27'1 1.2
2014-Sep-12 22:33N 37°49' W 122°28'3 3.2
2014-Sep-12 21:33N 37°49' W 122°24'1 0.6
2014-Sep-12 20:33N 37°49' W 122°25'3 2.9
2014-Sep-12 19:33N 37°49' W 122°28'3 2.8
2014-Sep-12 18:33N 37°49' W 122°25'1 0.7
2014-Sep-12 17:34N 37°49' W 122°25'0 0.0
2014-Sep-12 03:11N 37°49' W 122°25'3 4.2
2014-Sep-12 02:33N 37°49' W 122°28'4 3.7
2014-Sep-12 01:33N 37°52' W 122°25'3 3.0
2014-Sep-12 00:33N 37°49' W 122°25'0 0.0
2014-Sep-11 23:33N 37°49' W 122°25'1 0.5
2014-Sep-11 22:34N 37°49' W 122°25'2 1.9
2014-Sep-11 21:33N 37°48' W 122°23'1 1.5
2014-Sep-11 20:34N 37°49' W 122°25'3 2.9
2014-Sep-11 19:34N 37°49' W 122°28'3 2.7
2014-Sep-11 18:33N 37°49' W 122°25'1 0.9
2014-Sep-11 17:33N 37°49' W 122°25'  
Track history (hours):
 
Tides and Currents Weather Stations Pressure Air Temp Water Temp Dewpoint Dewpoint Depression Visibility Wind Speed Wind Dir Waves Ship Positions

Royal Prince

More information available from US FCC via Universal Licensing System and Coast Guard Vessel Documentation Center.

Last reported at 2014-Sep-21 01:08 UTC. Time now 2014-Sep-21 02:07 UTC.
Position N 37°49' W 122°25'.

Length 28 m; draft 2.3 m.

Type: Passenger vessel. MMSI: 366975760.

Date/timePositionNaut miles runAvg speedWind from/ knotsBaromVisibWave heightAir tempDewpointWater temp
2014-Sep-21 01:08N 37°49' W 122°25'1 1.9
2014-Sep-21 00:33N 37°48' W 122°24'2 2.4
2014-Sep-20 23:33N 37°49' W 122°27'1 1.0
2014-Sep-20 22:33N 37°49' W 122°27'2 2.3
2014-Sep-20 21:33N 37°49' W 122°25'0 0.4
2014-Sep-20 20:33N 37°49' W 122°25'2 2.0
2014-Sep-20 19:33N 37°49' W 122°27'2 1.7
2014-Sep-20 18:33N 37°49' W 122°25'1 0.8
2014-Sep-20 17:33N 37°49' W 122°25'0 0.0
2014-Sep-20 16:33N 37°49' W 122°25'1 0.1
2014-Sep-20 00:34N 37°48' W 122°24'3 2.7
2014-Sep-19 23:34N 37°49' W 122°27'1 0.8
2014-Sep-19 22:33N 37°49' W 122°28'3 2.5
2014-Sep-19 21:33N 37°49' W 122°24'0 0.4
2014-Sep-19 20:33N 37°49' W 122°25'2 1.9
2014-Sep-19 19:34N 37°49' W 122°27'2 1.9
2014-Sep-19 18:34N 37°49' W 122°25'0 0.5
2014-Sep-19 17:33N 37°49' W 122°25'0 0.0
2014-Sep-19 03:12N 37°49' W 122°25'3 4.5
2014-Sep-19 02:34N 37°50' W 122°28'3 3.5
2014-Sep-19 01:34N 37°52' W 122°25'3 3.4
2014-Sep-19 00:34N 37°49' W 122°25'0 0.0
2014-Sep-18 23:34N 37°49' W 122°25'1 0.8
2014-Sep-18 22:34N 37°49' W 122°24'3 2.9
2014-Sep-18 21:34N 37°49' W 122°28'4 3.9
2014-Sep-18 20:34N 37°48' W 122°23'2 2.2
2014-Sep-18 19:33N 37°49' W 122°25'1 1.2
2014-Sep-18 18:34N 37°50' W 122°26'1 0.1
2014-Sep-18 03:17N 37°49' W 122°25'3 4.0
2014-Sep-18 02:33N 37°50' W 122°28'2 2.3
2014-Sep-18 01:33N 37°50' W 122°25'2 1.6
2014-Sep-18 00:33N 37°49' W 122°25'0 0.0
2014-Sep-17 23:33N 37°49' W 122°25'1 1.2
2014-Sep-17 22:33N 37°48' W 122°24'2 1.9
2014-Sep-17 21:33N 37°49' W 122°26'2 1.7
2014-Sep-17 20:33N 37°49' W 122°24'1 1.0
2014-Sep-17 19:33N 37°49' W 122°25'0 0.0
2014-Sep-17 03:16N 37°49' W 122°25'2 3.5
2014-Sep-17 02:33N 37°49' W 122°28'4 3.6
2014-Sep-17 01:33N 37°52' W 122°25'4 3.5
2014-Sep-17 00:33N 37°49' W 122°25'0 0.0
2014-Sep-16 23:33N 37°49' W 122°25'1 0.7
2014-Sep-16 22:33N 37°49' W 122°24'3 2.8
2014-Sep-16 21:33N 37°49' W 122°28'4 3.7
2014-Sep-16 20:33N 37°48' W 122°23'2 1.6
2014-Sep-16 19:33N 37°49' W 122°25'0 0.0
2014-Sep-16 03:07N 37°49' W 122°25'2 4.0
2014-Sep-16 02:34N 37°49' W 122°28'4 3.8
2014-Sep-16 01:34N 37°52' W 122°25'4 3.9
2014-Sep-16 00:34N 37°49' W 122°25'0 0.0
2014-Sep-15 23:34N 37°49' W 122°25'1 0.6
2014-Sep-15 22:34N 37°49' W 122°24'3 2.8
2014-Sep-15 21:33N 37°49' W 122°28'4 4.1
2014-Sep-15 20:33N 37°48' W 122°23'2 1.8
2014-Sep-15 19:34N 37°49' W 122°25'0 0.0
2014-Sep-15 04:34N 37°49' W 122°25'0 0.3
2014-Sep-15 03:34N 37°49' W 122°25'4 4.3
2014-Sep-15 02:34N 37°52' W 122°29'4 4.3
2014-Sep-15 01:34N 37°49' W 122°25'0 0.0
2014-Sep-15 00:34N 37°49' W 122°25'0 0.0
2014-Sep-14 23:34N 37°49' W 122°25'3 2.6
2014-Sep-14 22:34N 37°49' W 122°28'3 2.8
2014-Sep-14 21:34N 37°49' W 122°25'1 0.7
2014-Sep-14 20:34N 37°49' W 122°25'3 3.0
2014-Sep-14 19:34N 37°49' W 122°29'3 2.9
2014-Sep-14 18:34N 37°50' W 122°25'1 1.0
2014-Sep-14 17:34N 37°49' W 122°25'0 0.0
2014-Sep-13 21:34N 37°49' W 122°24'0 0.5
2014-Sep-13 20:34N 37°49' W 122°25'3 2.8
2014-Sep-13 19:33N 37°49' W 122°28'2 2.5
2014-Sep-13 18:34N 37°50' W 122°25'1 1.1
2014-Sep-13 17:34N 37°49' W 122°25'0 0.0
2014-Sep-13 16:33N 37°49' W 122°25'0 0.0
2014-Sep-13 15:33N 37°49' W 122°25'0 0.0
2014-Sep-13 01:07N 37°49' W 122°25'1 1.7
2014-Sep-13 00:33N 37°48' W 122°24'3 2.6
2014-Sep-12 23:33N 37°49' W 122°27'1 1.2
2014-Sep-12 22:33N 37°49' W 122°28'3 3.2
2014-Sep-12 21:33N 37°49' W 122°24'1 0.6
2014-Sep-12 20:33N 37°49' W 122°25'3 2.9
2014-Sep-12 19:33N 37°49' W 122°28'3 2.8
2014-Sep-12 18:33N 37°49' W 122°25'1 0.7
2014-Sep-12 17:34N 37°49' W 122°25'0 0.0
2014-Sep-12 03:11N 37°49' W 122°25'3 4.2
2014-Sep-12 02:33N 37°49' W 122°28'4 3.7
2014-Sep-12 01:33N 37°52' W 122°25'3 3.0
2014-Sep-12 00:33N 37°49' W 122°25'0 0.0
2014-Sep-11 23:33N 37°49' W 122°25'1 0.5
2014-Sep-11 22:34N 37°49' W 122°25'2 1.9
2014-Sep-11 21:33N 37°48' W 122°23'1 1.5
2014-Sep-11 20:34N 37°49' W 122°25'3 2.9
2014-Sep-11 19:34N 37°49' W 122°28'3 2.7
2014-Sep-11 18:33N 37°49' W 122°25'1 0.9
2014-Sep-11 17:33N 37°49' W 122°25'  

Dump ship's entire track history